Little Rock, AR (72212)

6:56 AM CDT on September 02, 2015 (GMT -0500)
Belle Pointe | | Change Station
CLOSE
Current Station
Personal Weather Station
Location: Little Rock, AR
Elevation: 801 ft
Nearby Weather Stations

Elev 801 ft 34.77 °N, 92.43 °W | Updated 10 minutes ago

Partly Cloudy
Partly Cloudy
75.9 °F
Feels Like 77 °F
N
3.2
Wind Variable Wind from WSW

Today
High -- | Low -- °F
--% Chance of Precip.
Yesterday
High -- | Low -- °F
Precip. -- in
6:43 AM 7:35 PM
Waning Gibbous, 81% visible
Pressure 30.09 in
Visibility 7.0 miles
Clouds Few 4000 ft
Scattered Clouds 15000 ft
Scattered Clouds 25000 ft
Heat Index 77 °F
Dew Point 66 °F
Humidity 72%
Rainfall 0.00 in
Snow Depth Not available.
UV 0 out of 12
Pollen 9.80 out of 12
Air Quality Not available.
Flu Activity Not available.
METAR KLIT 021153Z 00000KT 7SM FEW040 SCT150 SCT250 22/20 A3009 RMK AO2 SLP188 T02220200 10244 20222 53008
Pressure 30.09 in
Visibility 7.0 miles
Clouds Few 4000 ft
Scattered Clouds 15000 ft
Scattered Clouds 25000 ft
Heat Index 77 °F
Dew Point 66 °F
Humidity 72%
Rainfall 0.00 in
Snow Depth Not available.
UV 0 out of 12
Pollen 9.80 out of 12
Air Quality Not available.
Flu Activity Not available.
METAR KLIT 021153Z 00000KT 7SM FEW040 SCT150 SCT250 22/20 A3009 RMK AO2 SLP188 T02220200 10244 20222 53008

10-Day Weather Forecast

×

Almanac

Astronomy

Sep. 02, 2015 Rise Set
Actual Time
Civil Twilight
Nautical Twilight
Astronomical Twilight
Moon
Length of Visible Light
Length of Day
Tomorrow will be .
, % of the Moon is Illuminated

Today's Extremes

State Highs State Lows

Community

WunderPhotos

Upload Photos

1,851,736 photos uploaded!

WunderBlogs® & News

Nearby

Air Quality

  Air Quality AQ Index Pollutant
Not available.

Snow Depth

Station Depth Elevation

Earthquake Activity

City Distance Mag. Time & Date
Minimum magnitude displayed is 2.5.

Coastal Water Temperatures

Place Temperature

Stations

Nearby Weather Stations

Station Location Temp. Windchill Dew Point Humidity Wind Precip. Elev Updated Type